KEFT

Details ICAO KEFT
Name Monroe Muni
Region United States
Timezone America/Chicago (UTC-6.0)
Plans Departing 1
Arriving 1
Stats Elevation 1,086 ft / 331 m (AMSL)
Location 42.614674° -89.591161°
Runways 2
Magnetic Variation 2.483° W
Sunrise 2017-12-18 13:24:56 UTC / 2017-12-18 07:24:56 Local
Sunset 2017-12-18 22:27:58 UTC / 2017-12-18 16:27:58 Local
Advertisement - Login to hide

Runways

ID Width Length Bearing (true) Bearing (mag) Surface Threshold Offset Overrun Length
02 75 ft / 23 m 3,031 ft / 924 m 21.62° 24.10° Asphalt 0 ft / 0 m 210 ft / 64 m
12 75 ft / 23 m 4,992 ft / 1,522 m 121.50° 123.98° Asphalt 0 ft / 0 m 300 ft / 91 m
20 75 ft / 23 m 3,031 ft / 924 m 201.62° 204.10° Asphalt 0 ft / 0 m 450 ft / 137 m
30 75 ft / 23 m 4,992 ft / 1,522 m 301.51° 303.99° Asphalt 0 ft / 0 m 0 ft / 0 m

Map

Weather


0- 5 10 15 20 25 30 35+ Temperature / ° C

Clouds and Precipitation
Forecast for 2017-12-18 12:00 UTC. Updated 2 hours ago

Ground ~20,000 ft ~40,000 ft Winds

METAR

KEFT 181050Z AUTO 24008KT 1/2SM FG OVC002 01/01 A2989 RMK AO2

TAF

Not found

Frequencies

Recorded 118.37 MHz AWOS 3
Approach 126.00 MHz ROCKFORD APP/DEP
Unicom 123.05 MHz CTAF/UNICOM
Warning: Do not use this data for real-world aviation or navigation. No guarantee of current accuracy is given.